Terminal Aerodrome Forecast
Issued by NWS

Home | Current Version | Previous Version | Text Only | Print | Product List | Glossary On
Versions: 1 2 3 4 5 6 7 8 9 10 11 12 13 14 15 16 17
000
FTUS42 TJSJ 231700
TAFKPK
TAF
TKPK 231724Z 2318/2418 06015KT P6SM SCT020
     FM232300 07013KT P6SM FEW020
     FM241500 08018G26KT P6SM VCSH FEW020=

USA.gov is the U.S. government's official web portal to all federal, state and local government web resources and services.